sensor_id;sensor_type;location;lat;lon;timestamp;P1;durP1;ratioP1;P2;durP2;ratioP2
6432;SDS011;3249;42.690;23.260;2023-12-28T00:00:41;41.67;;;29.77;;
6432;SDS011;3249;42.690;23.260;2023-12-28T00:03:10;41.87;;;29.40;;
6432;SDS011;3249;42.690;23.260;2023-12-28T00:05:40;48.17;;;31.00;;
6432;SDS011;3249;42.690;23.260;2023-12-28T00:08:09;40.10;;;29.80;;
6432;SDS011;3249;42.690;23.260;2023-12-28T00:10:38;48.73;;;31.80;;
6432;SDS011;3249;42.690;23.260;2023-12-28T00:13:07;43.27;;;31.43;;
6432;SDS011;3249;42.690;23.260;2023-12-28T00:15:39;47.60;;;32.50;;
6432;SDS011;3249;42.690;23.260;2023-12-28T00:18:09;42.97;;;30.30;;
6432;SDS011;3249;42.690;23.260;2023-12-28T00:20:38;43.07;;;29.50;;
6432;SDS011;3249;42.690;23.260;2023-12-28T00:23:07;43.07;;;31.37;;
6432;SDS011;3249;42.690;23.260;2023-12-28T00:25:36;43.63;;;31.97;;
6432;SDS011;3249;42.690;23.260;2023-12-28T00:28:06;43.50;;;29.83;;
6432;SDS011;3249;42.690;23.260;2023-12-28T00:30:35;52.77;;;31.43;;
6432;SDS011;3249;42.690;23.260;2023-12-28T00:33:08;45.57;;;30.67;;
6432;SDS011;3249;42.690;23.260;2023-12-28T00:35:37;42.17;;;30.73;;
6432;SDS011;3249;42.690;23.260;2023-12-28T00:38:06;43.93;;;31.10;;
6432;SDS011;3249;42.690;23.260;2023-12-28T00:40:35;42.93;;;30.57;;
6432;SDS011;3249;42.690;23.260;2023-12-28T00:43:05;47.03;;;31.37;;
6432;SDS011;3249;42.690;23.260;2023-12-28T00:45:34;41.87;;;30.83;;
6432;SDS011;3249;42.690;23.260;2023-12-28T00:48:04;41.87;;;30.77;;
6432;SDS011;3249;42.690;23.260;2023-12-28T00:50:36;44.27;;;29.70;;
6432;SDS011;3249;42.690;23.260;2023-12-28T00:53:07;43.27;;;30.30;;
6432;SDS011;3249;42.690;23.260;2023-12-28T00:55:36;45.93;;;30.00;;
6432;SDS011;3249;42.690;23.260;2023-12-28T00:58:05;39.47;;;28.67;;
6432;SDS011;3249;42.690;23.260;2023-12-28T01:00:35;42.20;;;28.37;;
6432;SDS011;3249;42.690;23.260;2023-12-28T01:03:04;44.17;;;28.67;;
6432;SDS011;3249;42.690;23.260;2023-12-28T01:05:36;34.40;;;25.40;;
6432;SDS011;3249;42.690;23.260;2023-12-28T01:08:05;39.43;;;29.00;;
6432;SDS011;3249;42.690;23.260;2023-12-28T01:10:35;40.10;;;27.93;;
6432;SDS011;3249;42.690;23.260;2023-12-28T01:13:04;41.17;;;28.73;;
6432;SDS011;3249;42.690;23.260;2023-12-28T01:15:33;42.70;;;27.57;;
6432;SDS011;3249;42.690;23.260;2023-12-28T01:18:03;42.77;;;29.53;;
6432;SDS011;3249;42.690;23.260;2023-12-28T01:20:33;37.73;;;28.13;;
6432;SDS011;3249;42.690;23.260;2023-12-28T01:23:04;38.33;;;27.43;;
6432;SDS011;3249;42.690;23.260;2023-12-28T01:25:34;38.43;;;27.30;;
6432;SDS011;3249;42.690;23.260;2023-12-28T01:28:03;34.60;;;27.57;;
6432;SDS011;3249;42.690;23.260;2023-12-28T01:30:32;39.80;;;27.17;;
6432;SDS011;3249;42.690;23.260;2023-12-28T01:33:02;36.07;;;27.63;;
6432;SDS011;3249;42.690;23.260;2023-12-28T01:35:32;38.23;;;25.90;;
6432;SDS011;3249;42.690;23.260;2023-12-28T01:38:04;40.57;;;26.33;;
6432;SDS011;3249;42.690;23.260;2023-12-28T01:40:34;39.23;;;28.23;;
6432;SDS011;3249;42.690;23.260;2023-12-28T01:43:03;35.70;;;26.13;;
6432;SDS011;3249;42.690;23.260;2023-12-28T01:45:32;38.13;;;27.63;;
6432;SDS011;3249;42.690;23.260;2023-12-28T01:48:02;39.03;;;27.03;;
6432;SDS011;3249;42.690;23.260;2023-12-28T01:50:33;38.20;;;27.17;;
6432;SDS011;3249;42.690;23.260;2023-12-28T01:53:06;39.50;;;26.60;;
6432;SDS011;3249;42.690;23.260;2023-12-28T01:55:49;36.73;;;26.50;;
6432;SDS011;3249;42.690;23.260;2023-12-28T01:58:18;42.80;;;30.03;;
6432;SDS011;3249;42.690;23.260;2023-12-28T02:00:47;40.17;;;29.13;;
6432;SDS011;3249;42.690;23.260;2023-12-28T02:03:17;39.67;;;27.83;;
6432;SDS011;3249;42.690;23.260;2023-12-28T02:05:46;36.73;;;27.37;;
6432;SDS011;3249;42.690;23.260;2023-12-28T02:08:18;41.43;;;27.80;;
6432;SDS011;3249;42.690;23.260;2023-12-28T02:10:48;39.83;;;27.60;;
6432;SDS011;3249;42.690;23.260;2023-12-28T02:13:18;40.07;;;27.60;;
6432;SDS011;3249;42.690;23.260;2023-12-28T02:15:47;33.27;;;24.77;;
6432;SDS011;3249;42.690;23.260;2023-12-28T02:18:23;35.33;;;26.00;;
6432;SDS011;3249;42.690;23.260;2023-12-28T02:20:58;34.17;;;24.97;;
6432;SDS011;3249;42.690;23.260;2023-12-28T02:23:34;34.87;;;25.30;;
6432;SDS011;3249;42.690;23.260;2023-12-28T02:26:06;34.37;;;25.03;;
6432;SDS011;3249;42.690;23.260;2023-12-28T02:28:35;36.87;;;25.90;;
6432;SDS011;3249;42.690;23.260;2023-12-28T02:31:04;41.60;;;28.57;;
6432;SDS011;3249;42.690;23.260;2023-12-28T02:33:38;38.80;;;28.70;;
6432;SDS011;3249;42.690;23.260;2023-12-28T02:36:18;35.80;;;25.83;;
6432;SDS011;3249;42.690;23.260;2023-12-28T02:38:51;38.37;;;26.13;;
6432;SDS011;3249;42.690;23.260;2023-12-28T02:41:27;40.60;;;28.27;;
6432;SDS011;3249;42.690;23.260;2023-12-28T02:43:57;32.90;;;22.97;;
6432;SDS011;3249;42.690;23.260;2023-12-28T02:46:27;34.77;;;25.37;;
6432;SDS011;3249;42.690;23.260;2023-12-28T02:48:57;31.00;;;21.70;;
6432;SDS011;3249;42.690;23.260;2023-12-28T02:51:26;31.90;;;22.97;;
6432;SDS011;3249;42.690;23.260;2023-12-28T02:53:55;35.57;;;24.53;;
6432;SDS011;3249;42.690;23.260;2023-12-28T02:56:27;34.33;;;22.80;;
6432;SDS011;3249;42.690;23.260;2023-12-28T02:58:58;34.97;;;23.80;;
6432;SDS011;3249;42.690;23.260;2023-12-28T03:01:28;32.90;;;24.00;;
6432;SDS011;3249;42.690;23.260;2023-12-28T03:03:57;32.80;;;22.50;;
6432;SDS011;3249;42.690;23.260;2023-12-28T03:06:26;32.73;;;22.33;;
6432;SDS011;3249;42.690;23.260;2023-12-28T03:08:55;24.43;;;18.77;;
6432;SDS011;3249;42.690;23.260;2023-12-28T03:11:27;24.37;;;17.17;;
6432;SDS011;3249;42.690;23.260;2023-12-28T03:13:57;23.80;;;17.77;;
6432;SDS011;3249;42.690;23.260;2023-12-28T03:16:27;25.70;;;17.93;;
6432;SDS011;3249;42.690;23.260;2023-12-28T03:18:56;29.60;;;20.93;;
6432;SDS011;3249;42.690;23.260;2023-12-28T03:21:25;28.77;;;20.27;;
6432;SDS011;3249;42.690;23.260;2023-12-28T03:23:54;29.23;;;19.63;;
6432;SDS011;3249;42.690;23.260;2023-12-28T03:26:28;22.47;;;17.97;;
6432;SDS011;3249;42.690;23.260;2023-12-28T03:28:57;27.83;;;19.00;;
6432;SDS011;3249;42.690;23.260;2023-12-28T03:31:26;26.37;;;20.37;;
6432;SDS011;3249;42.690;23.260;2023-12-28T03:33:55;26.47;;;20.90;;
6432;SDS011;3249;42.690;23.260;2023-12-28T03:36:24;28.33;;;21.53;;
6432;SDS011;3249;42.690;23.260;2023-12-28T03:38:54;27.43;;;19.77;;
6432;SDS011;3249;42.690;23.260;2023-12-28T03:41:24;28.20;;;21.13;;
6432;SDS011;3249;42.690;23.260;2023-12-28T03:43:56;23.47;;;17.83;;
6432;SDS011;3249;42.690;23.260;2023-12-28T03:46:26;24.63;;;18.33;;
6432;SDS011;3249;42.690;23.260;2023-12-28T03:48:55;28.60;;;20.37;;
6432;SDS011;3249;42.690;23.260;2023-12-28T03:51:25;23.97;;;17.90;;
6432;SDS011;3249;42.690;23.260;2023-12-28T03:53:54;27.90;;;19.27;;
6432;SDS011;3249;42.690;23.260;2023-12-28T03:56:24;29.03;;;19.03;;
6432;SDS011;3249;42.690;23.260;2023-12-28T03:58:58;26.87;;;19.37;;
6432;SDS011;3249;42.690;23.260;2023-12-28T04:01:27;27.20;;;21.37;;
6432;SDS011;3249;42.690;23.260;2023-12-28T04:03:58;25.30;;;18.70;;
6432;SDS011;3249;42.690;23.260;2023-12-28T04:06:27;30.10;;;22.10;;
6432;SDS011;3249;42.690;23.260;2023-12-28T04:08:57;31.30;;;22.37;;
6432;SDS011;3249;42.690;23.260;2023-12-28T04:11:26;31.77;;;21.50;;
6432;SDS011;3249;42.690;23.260;2023-12-28T04:13:59;28.20;;;21.03;;
6432;SDS011;3249;42.690;23.260;2023-12-28T04:16:28;33.00;;;22.80;;
6432;SDS011;3249;42.690;23.260;2023-12-28T04:18:58;31.33;;;22.20;;
6432;SDS011;3249;42.690;23.260;2023-12-28T04:21:27;29.70;;;22.87;;
6432;SDS011;3249;42.690;23.260;2023-12-28T04:23:56;29.53;;;21.40;;
6432;SDS011;3249;42.690;23.260;2023-12-28T04:26:26;28.30;;;22.27;;
6432;SDS011;3249;42.690;23.260;2023-12-28T04:28:59;30.23;;;20.37;;
6432;SDS011;3249;42.690;23.260;2023-12-28T04:31:28;31.37;;;20.53;;
6432;SDS011;3249;42.690;23.260;2023-12-28T04:33:58;30.57;;;21.50;;
6432;SDS011;3249;42.690;23.260;2023-12-28T04:36:28;29.60;;;20.50;;
6432;SDS011;3249;42.690;23.260;2023-12-28T04:38:57;29.10;;;21.40;;
6432;SDS011;3249;42.690;23.260;2023-12-28T04:41:26;31.97;;;22.20;;
6432;SDS011;3249;42.690;23.260;2023-12-28T04:43:58;31.03;;;23.67;;
6432;SDS011;3249;42.690;23.260;2023-12-28T04:46:29;29.97;;;22.37;;
6432;SDS011;3249;42.690;23.260;2023-12-28T04:48:58;30.13;;;20.70;;
6432;SDS011;3249;42.690;23.260;2023-12-28T04:51:27;30.97;;;21.20;;
6432;SDS011;3249;42.690;23.260;2023-12-28T04:53:56;30.37;;;20.87;;
6432;SDS011;3249;42.690;23.260;2023-12-28T04:56:25;28.93;;;23.27;;
6432;SDS011;3249;42.690;23.260;2023-12-28T04:58:55;35.37;;;25.27;;
6432;SDS011;3249;42.690;23.260;2023-12-28T05:01:27;34.70;;;24.77;;
6432;SDS011;3249;42.690;23.260;2023-12-28T05:03:58;30.73;;;22.43;;
6432;SDS011;3249;42.690;23.260;2023-12-28T05:06:28;29.07;;;21.43;;
6432;SDS011;3249;42.690;23.260;2023-12-28T05:08:57;32.73;;;25.37;;
6432;SDS011;3249;42.690;23.260;2023-12-28T05:11:30;33.60;;;26.43;;
6432;SDS011;3249;42.690;23.260;2023-12-28T05:14:00;39.10;;;26.30;;
6432;SDS011;3249;42.690;23.260;2023-12-28T05:16:32;29.10;;;24.70;;
6432;SDS011;3249;42.690;23.260;2023-12-28T05:19:01;34.47;;;24.87;;
6432;SDS011;3249;42.690;23.260;2023-12-28T05:21:30;32.83;;;22.80;;
6432;SDS011;3249;42.690;23.260;2023-12-28T05:24:00;34.50;;;24.03;;
6432;SDS011;3249;42.690;23.260;2023-12-28T05:26:29;33.77;;;25.53;;
6432;SDS011;3249;42.690;23.260;2023-12-28T05:28:58;34.03;;;25.27;;
6432;SDS011;3249;42.690;23.260;2023-12-28T05:31:28;32.17;;;23.83;;
6432;SDS011;3249;42.690;23.260;2023-12-28T05:34:00;37.07;;;23.97;;
6432;SDS011;3249;42.690;23.260;2023-12-28T05:36:30;41.60;;;27.03;;
6432;SDS011;3249;42.690;23.260;2023-12-28T05:39:00;37.57;;;26.33;;
6432;SDS011;3249;42.690;23.260;2023-12-28T05:41:29;38.47;;;26.07;;
6432;SDS011;3249;42.690;23.260;2023-12-28T05:43:59;40.57;;;27.53;;
6432;SDS011;3249;42.690;23.260;2023-12-28T05:46:28;44.10;;;30.33;;
6432;SDS011;3249;42.690;23.260;2023-12-28T05:49:00;33.80;;;24.80;;
6432;SDS011;3249;42.690;23.260;2023-12-28T05:51:29;32.83;;;24.47;;
6432;SDS011;3249;42.690;23.260;2023-12-28T05:53:59;34.53;;;25.33;;
6432;SDS011;3249;42.690;23.260;2023-12-28T05:56:28;41.50;;;29.70;;
6432;SDS011;3249;42.690;23.260;2023-12-28T05:58:57;44.93;;;31.83;;
6432;SDS011;3249;42.690;23.260;2023-12-28T06:01:27;47.23;;;31.43;;
6432;SDS011;3249;42.690;23.260;2023-12-28T06:03:56;43.07;;;27.67;;
6432;SDS011;3249;42.690;23.260;2023-12-28T06:06:28;40.57;;;27.77;;
6432;SDS011;3249;42.690;23.260;2023-12-28T06:08:57;38.87;;;27.97;;
6432;SDS011;3249;42.690;23.260;2023-12-28T06:11:29;40.30;;;26.47;;
6432;SDS011;3249;42.690;23.260;2023-12-28T06:13:58;42.07;;;28.97;;
6432;SDS011;3249;42.690;23.260;2023-12-28T06:16:27;42.30;;;31.07;;
6432;SDS011;3249;42.690;23.260;2023-12-28T06:18:58;39.83;;;28.87;;
6432;SDS011;3249;42.690;23.260;2023-12-28T06:21:31;46.37;;;30.57;;
6432;SDS011;3249;42.690;23.260;2023-12-28T06:24:00;45.43;;;31.47;;
6432;SDS011;3249;42.690;23.260;2023-12-28T06:26:30;67.60;;;42.10;;
6432;SDS011;3249;42.690;23.260;2023-12-28T06:28:59;57.50;;;37.00;;
6432;SDS011;3249;42.690;23.260;2023-12-28T06:31:28;50.13;;;34.93;;
6432;SDS011;3249;42.690;23.260;2023-12-28T06:33:59;52.13;;;37.90;;
6432;SDS011;3249;42.690;23.260;2023-12-28T06:36:31;58.20;;;38.17;;
6432;SDS011;3249;42.690;23.260;2023-12-28T06:39:00;55.87;;;39.37;;
6432;SDS011;3249;42.690;23.260;2023-12-28T06:41:30;60.50;;;39.30;;
6432;SDS011;3249;42.690;23.260;2023-12-28T06:43:59;60.50;;;39.07;;
6432;SDS011;3249;42.690;23.260;2023-12-28T06:46:30;56.53;;;40.57;;
6432;SDS011;3249;42.690;23.260;2023-12-28T06:49:00;55.47;;;39.27;;
6432;SDS011;3249;42.690;23.260;2023-12-28T06:51:34;60.33;;;40.37;;
6432;SDS011;3249;42.690;23.260;2023-12-28T06:54:05;58.57;;;40.43;;
6432;SDS011;3249;42.690;23.260;2023-12-28T06:56:34;60.57;;;42.27;;
6432;SDS011;3249;42.690;23.260;2023-12-28T06:59:03;67.50;;;41.87;;
6432;SDS011;3249;42.690;23.260;2023-12-28T07:01:33;51.33;;;36.57;;
6432;SDS011;3249;42.690;23.260;2023-12-28T07:04:02;57.13;;;38.87;;
6432;SDS011;3249;42.690;23.260;2023-12-28T07:06:34;49.63;;;35.53;;
6432;SDS011;3249;42.690;23.260;2023-12-28T07:09:03;53.93;;;37.07;;
6432;SDS011;3249;42.690;23.260;2023-12-28T07:11:33;49.47;;;35.87;;
6432;SDS011;3249;42.690;23.260;2023-12-28T07:14:02;51.03;;;35.17;;
6432;SDS011;3249;42.690;23.260;2023-12-28T07:16:31;45.77;;;34.40;;
6432;SDS011;3249;42.690;23.260;2023-12-28T07:19:00;49.83;;;35.17;;
6432;SDS011;3249;42.690;23.260;2023-12-28T07:21:30;58.17;;;39.17;;
6432;SDS011;3249;42.690;23.260;2023-12-28T07:24:03;56.93;;;38.20;;
6432;SDS011;3249;42.690;23.260;2023-12-28T07:26:35;49.27;;;37.43;;
6432;SDS011;3249;42.690;23.260;2023-12-28T07:29:05;46.20;;;35.03;;
6432;SDS011;3249;42.690;23.260;2023-12-28T07:31:35;54.60;;;39.80;;
6432;SDS011;3249;42.690;23.260;2023-12-28T07:34:05;49.70;;;35.60;;
6432;SDS011;3249;42.690;23.260;2023-12-28T07:36:37;54.63;;;38.30;;
6432;SDS011;3249;42.690;23.260;2023-12-28T07:39:09;52.37;;;37.93;;
6432;SDS011;3249;42.690;23.260;2023-12-28T07:41:40;50.53;;;38.63;;
6432;SDS011;3249;42.690;23.260;2023-12-28T07:44:10;56.33;;;40.73;;
6432;SDS011;3249;42.690;23.260;2023-12-28T07:46:42;52.33;;;38.60;;
6432;SDS011;3249;42.690;23.260;2023-12-28T07:49:11;54.67;;;40.07;;
6432;SDS011;3249;42.690;23.260;2023-12-28T07:51:43;54.70;;;40.53;;
6432;SDS011;3249;42.690;23.260;2023-12-28T07:54:13;53.37;;;37.23;;
6432;SDS011;3249;42.690;23.260;2023-12-28T07:56:42;44.27;;;33.27;;
6432;SDS011;3249;42.690;23.260;2023-12-28T07:59:11;42.23;;;32.83;;
6432;SDS011;3249;42.690;23.260;2023-12-28T08:01:41;48.23;;;33.40;;
6432;SDS011;3249;42.690;23.260;2023-12-28T08:04:11;40.37;;;33.67;;
6432;SDS011;3249;42.690;23.260;2023-12-28T08:06:44;46.00;;;32.30;;
6432;SDS011;3249;42.690;23.260;2023-12-28T08:09:13;44.17;;;31.40;;
6432;SDS011;3249;42.690;23.260;2023-12-28T08:11:42;51.13;;;35.80;;
6432;SDS011;3249;42.690;23.260;2023-12-28T08:14:11;86.93;;;65.37;;
6432;SDS011;3249;42.690;23.260;2023-12-28T08:16:45;101.90;;;77.03;;
6432;SDS011;3249;42.690;23.260;2023-12-28T08:19:15;102.80;;;81.13;;
6432;SDS011;3249;42.690;23.260;2023-12-28T08:21:49;79.13;;;60.13;;
6432;SDS011;3249;42.690;23.260;2023-12-28T08:24:21;81.97;;;60.13;;
6432;SDS011;3249;42.690;23.260;2023-12-28T08:26:51;83.60;;;61.70;;
6432;SDS011;3249;42.690;23.260;2023-12-28T08:29:26;80.60;;;61.67;;
6432;SDS011;3249;42.690;23.260;2023-12-28T08:31:55;88.83;;;67.33;;
6432;SDS011;3249;42.690;23.260;2023-12-28T08:34:25;83.57;;;64.27;;
6432;SDS011;3249;42.690;23.260;2023-12-28T08:37:00;87.43;;;63.70;;
6432;SDS011;3249;42.690;23.260;2023-12-28T08:39:30;76.10;;;60.83;;
6432;SDS011;3249;42.690;23.260;2023-12-28T08:42:02;66.70;;;47.50;;
6432;SDS011;3249;42.690;23.260;2023-12-28T08:44:32;63.77;;;46.63;;
6432;SDS011;3249;42.690;23.260;2023-12-28T08:47:02;68.40;;;48.07;;
6432;SDS011;3249;42.690;23.260;2023-12-28T08:49:32;82.10;;;52.07;;
6432;SDS011;3249;42.690;23.260;2023-12-28T08:52:02;79.30;;;54.50;;
6432;SDS011;3249;42.690;23.260;2023-12-28T08:54:32;71.20;;;50.17;;
6432;SDS011;3249;42.690;23.260;2023-12-28T08:57:01;41.37;;;27.80;;
6432;SDS011;3249;42.690;23.260;2023-12-28T08:59:30;28.53;;;21.87;;
6432;SDS011;3249;42.690;23.260;2023-12-28T09:02:00;33.33;;;22.27;;
6432;SDS011;3249;42.690;23.260;2023-12-28T09:04:30;31.33;;;22.40;;
6432;SDS011;3249;42.690;23.260;2023-12-28T09:07:04;28.37;;;21.00;;
6432;SDS011;3249;42.690;23.260;2023-12-28T09:09:37;24.47;;;20.70;;
6432;SDS011;3249;42.690;23.260;2023-12-28T09:12:07;30.13;;;21.13;;
6432;SDS011;3249;42.690;23.260;2023-12-28T09:14:37;30.00;;;22.10;;
6432;SDS011;3249;42.690;23.260;2023-12-28T09:17:06;33.67;;;23.30;;
6432;SDS011;3249;42.690;23.260;2023-12-28T09:19:35;32.80;;;23.60;;
6432;SDS011;3249;42.690;23.260;2023-12-28T09:22:08;33.10;;;24.07;;
6432;SDS011;3249;42.690;23.260;2023-12-28T09:24:40;33.23;;;24.17;;
6432;SDS011;3249;42.690;23.260;2023-12-28T09:27:10;32.70;;;23.53;;
6432;SDS011;3249;42.690;23.260;2023-12-28T09:29:39;30.63;;;23.10;;
6432;SDS011;3249;42.690;23.260;2023-12-28T09:32:08;32.07;;;21.63;;
6432;SDS011;3249;42.690;23.260;2023-12-28T09:34:42;31.73;;;22.67;;
6432;SDS011;3249;42.690;23.260;2023-12-28T09:37:15;33.83;;;23.57;;
6432;SDS011;3249;42.690;23.260;2023-12-28T09:39:44;32.37;;;24.37;;
6432;SDS011;3249;42.690;23.260;2023-12-28T09:42:14;39.60;;;27.80;;
6432;SDS011;3249;42.690;23.260;2023-12-28T09:44:48;43.63;;;31.20;;
6432;SDS011;3249;42.690;23.260;2023-12-28T09:47:21;48.70;;;31.90;;
6432;SDS011;3249;42.690;23.260;2023-12-28T09:49:50;51.47;;;37.17;;
6432;SDS011;3249;42.690;23.260;2023-12-28T09:52:22;55.57;;;36.47;;
6432;SDS011;3249;42.690;23.260;2023-12-28T09:54:51;65.67;;;45.87;;
6432;SDS011;3249;42.690;23.260;2023-12-28T09:57:20;61.87;;;44.73;;
6432;SDS011;3249;42.690;23.260;2023-12-28T09:59:51;51.67;;;38.73;;
6432;SDS011;3249;42.690;23.260;2023-12-28T10:02:20;54.47;;;37.30;;
6432;SDS011;3249;42.690;23.260;2023-12-28T10:04:50;50.10;;;38.17;;
6432;SDS011;3249;42.690;23.260;2023-12-28T10:07:21;56.30;;;42.53;;
6432;SDS011;3249;42.690;23.260;2023-12-28T10:09:52;58.90;;;40.63;;
6432;SDS011;3249;42.690;23.260;2023-12-28T10:12:21;61.00;;;40.73;;
6432;SDS011;3249;42.690;23.260;2023-12-28T10:14:53;60.70;;;37.13;;
6432;SDS011;3249;42.690;23.260;2023-12-28T10:17:23;54.97;;;36.60;;
6432;SDS011;3249;42.690;23.260;2023-12-28T10:19:52;53.43;;;35.93;;
6432;SDS011;3249;42.690;23.260;2023-12-28T10:22:32;56.00;;;39.87;;
6432;SDS011;3249;42.690;23.260;2023-12-28T10:25:02;60.37;;;45.80;;
6432;SDS011;3249;42.690;23.260;2023-12-28T10:27:32;65.13;;;46.00;;
6432;SDS011;3249;42.690;23.260;2023-12-28T10:30:06;64.57;;;46.43;;
6432;SDS011;3249;42.690;23.260;2023-12-28T10:32:40;62.77;;;45.10;;
6432;SDS011;3249;42.690;23.260;2023-12-28T10:35:11;75.10;;;43.63;;
6432;SDS011;3249;42.690;23.260;2023-12-28T10:37:43;61.27;;;41.53;;
6432;SDS011;3249;42.690;23.260;2023-12-28T10:40:13;44.67;;;32.73;;
6432;SDS011;3249;42.690;23.260;2023-12-28T10:42:49;55.50;;;35.93;;
6432;SDS011;3249;42.690;23.260;2023-12-28T10:45:24;53.03;;;34.70;;
6432;SDS011;3249;42.690;23.260;2023-12-28T10:47:59;44.80;;;34.23;;
6432;SDS011;3249;42.690;23.260;2023-12-28T10:50:38;57.50;;;36.93;;
6432;SDS011;3249;42.690;23.260;2023-12-28T10:56:09;50.00;;;36.37;;
6432;SDS011;3249;42.690;23.260;2023-12-28T10:58:46;52.90;;;36.77;;
6432;SDS011;3249;42.690;23.260;2023-12-28T11:01:22;66.80;;;48.03;;
6432;SDS011;3249;42.690;23.260;2023-12-28T11:03:57;72.00;;;50.40;;
6432;SDS011;3249;42.690;23.260;2023-12-28T11:06:46;50.37;;;37.27;;
6432;SDS011;3249;42.690;23.260;2023-12-28T11:09:22;55.50;;;39.23;;
6432;SDS011;3249;42.690;23.260;2023-12-28T11:11:55;58.00;;;40.13;;
6432;SDS011;3249;42.690;23.260;2023-12-28T11:14:27;58.27;;;39.30;;
6432;SDS011;3249;42.690;23.260;2023-12-28T11:17:02;70.77;;;46.00;;
6432;SDS011;3249;42.690;23.260;2023-12-28T11:19:35;58.00;;;40.23;;
6432;SDS011;3249;42.690;23.260;2023-12-28T11:22:06;55.90;;;36.70;;
6432;SDS011;3249;42.690;23.260;2023-12-28T11:24:41;58.97;;;37.87;;
6432;SDS011;3249;42.690;23.260;2023-12-28T11:27:17;43.47;;;34.17;;
6432;SDS011;3249;42.690;23.260;2023-12-28T11:29:47;59.03;;;40.63;;
6432;SDS011;3249;42.690;23.260;2023-12-28T11:32:19;57.50;;;42.33;;
6432;SDS011;3249;42.690;23.260;2023-12-28T11:37:41;62.57;;;40.87;;
6432;SDS011;3249;42.690;23.260;2023-12-28T11:40:24;62.50;;;38.80;;
6432;SDS011;3249;42.690;23.260;2023-12-28T11:42:54;54.90;;;38.03;;
6432;SDS011;3249;42.690;23.260;2023-12-28T11:45:23;55.27;;;39.27;;
6432;SDS011;3249;42.690;23.260;2023-12-28T11:47:59;54.00;;;38.57;;
6432;SDS011;3249;42.690;23.260;2023-12-28T11:50:30;57.40;;;39.97;;
6432;SDS011;3249;42.690;23.260;2023-12-28T11:53:01;65.30;;;47.47;;
6432;SDS011;3249;42.690;23.260;2023-12-28T11:55:33;91.60;;;64.23;;
6432;SDS011;3249;42.690;23.260;2023-12-28T11:58:02;89.80;;;62.93;;
6432;SDS011;3249;42.690;23.260;2023-12-28T12:00:35;92.87;;;63.90;;
6432;SDS011;3249;42.690;23.260;2023-12-28T12:03:05;51.03;;;39.47;;
6432;SDS011;3249;42.690;23.260;2023-12-28T12:05:34;49.07;;;33.00;;
6432;SDS011;3249;42.690;23.260;2023-12-28T12:08:04;48.53;;;35.07;;
6432;SDS011;3249;42.690;23.260;2023-12-28T12:10:38;46.90;;;34.80;;
6432;SDS011;3249;42.690;23.260;2023-12-28T12:13:08;45.33;;;31.20;;
6432;SDS011;3249;42.690;23.260;2023-12-28T12:15:38;44.43;;;30.13;;
6432;SDS011;3249;42.690;23.260;2023-12-28T12:18:08;41.43;;;27.77;;
6432;SDS011;3249;42.690;23.260;2023-12-28T12:20:38;46.30;;;30.07;;
6432;SDS011;3249;42.690;23.260;2023-12-28T12:23:08;37.87;;;23.63;;
6432;SDS011;3249;42.690;23.260;2023-12-28T12:25:41;35.10;;;24.87;;
6432;SDS011;3249;42.690;23.260;2023-12-28T12:28:12;40.53;;;26.03;;
6432;SDS011;3249;42.690;23.260;2023-12-28T12:30:48;49.40;;;35.47;;
6432;SDS011;3249;42.690;23.260;2023-12-28T12:33:20;60.03;;;36.23;;
6432;SDS011;3249;42.690;23.260;2023-12-28T12:35:50;44.30;;;31.77;;
6432;SDS011;3249;42.690;23.260;2023-12-28T12:38:20;45.17;;;31.30;;
6432;SDS011;3249;42.690;23.260;2023-12-28T12:40:53;43.23;;;31.40;;
6432;SDS011;3249;42.690;23.260;2023-12-28T12:43:23;39.90;;;31.47;;
6432;SDS011;3249;42.690;23.260;2023-12-28T12:45:52;45.90;;;32.13;;
6432;SDS011;3249;42.690;23.260;2023-12-28T12:48:22;24.90;;;21.10;;
6432;SDS011;3249;42.690;23.260;2023-12-28T12:50:51;28.60;;;20.93;;
6432;SDS011;3249;42.690;23.260;2023-12-28T12:53:21;29.77;;;22.00;;
6432;SDS011;3249;42.690;23.260;2023-12-28T12:55:56;30.13;;;23.80;;
6432;SDS011;3249;42.690;23.260;2023-12-28T12:58:23;39.20;;;26.10;;
6432;SDS011;3249;42.690;23.260;2023-12-28T13:00:56;34.33;;;27.17;;
6432;SDS011;3249;42.690;23.260;2023-12-28T13:03:27;40.17;;;28.47;;
6432;SDS011;3249;42.690;23.260;2023-12-28T13:05:58;37.83;;;29.10;;
6432;SDS011;3249;42.690;23.260;2023-12-28T13:08:29;44.63;;;28.30;;
6432;SDS011;3249;42.690;23.260;2023-12-28T13:11:01;37.77;;;27.93;;
6432;SDS011;3249;42.690;23.260;2023-12-28T13:13:32;39.90;;;30.27;;
6432;SDS011;3249;42.690;23.260;2023-12-28T13:16:02;43.87;;;32.73;;
6432;SDS011;3249;42.690;23.260;2023-12-28T13:18:31;50.73;;;31.53;;
6432;SDS011;3249;42.690;23.260;2023-12-28T13:21:02;42.60;;;33.77;;
6432;SDS011;3249;42.690;23.260;2023-12-28T13:23:31;49.37;;;37.63;;
6432;SDS011;3249;42.690;23.260;2023-12-28T13:26:03;48.47;;;36.23;;
6432;SDS011;3249;42.690;23.260;2023-12-28T13:28:33;55.13;;;43.33;;
6432;SDS011;3249;42.690;23.260;2023-12-28T13:31:02;62.43;;;41.93;;
6432;SDS011;3249;42.690;23.260;2023-12-28T13:33:31;50.03;;;35.37;;
6432;SDS011;3249;42.690;23.260;2023-12-28T13:36:01;45.43;;;34.87;;
6432;SDS011;3249;42.690;23.260;2023-12-28T13:38:30;49.33;;;32.67;;
6432;SDS011;3249;42.690;23.260;2023-12-28T13:41:03;57.50;;;32.13;;
6432;SDS011;3249;42.690;23.260;2023-12-28T13:43:32;44.53;;;29.60;;
6432;SDS011;3249;42.690;23.260;2023-12-28T13:46:01;40.47;;;29.63;;
6432;SDS011;3249;42.690;23.260;2023-12-28T13:48:31;41.77;;;27.23;;
6432;SDS011;3249;42.690;23.260;2023-12-28T13:51:02;39.20;;;26.20;;
6432;SDS011;3249;42.690;23.260;2023-12-28T13:53:31;47.90;;;29.57;;
6432;SDS011;3249;42.690;23.260;2023-12-28T13:56:08;45.13;;;29.93;;
6432;SDS011;3249;42.690;23.260;2023-12-28T13:58:37;39.60;;;28.20;;
6432;SDS011;3249;42.690;23.260;2023-12-28T14:01:07;39.70;;;26.27;;
6432;SDS011;3249;42.690;23.260;2023-12-28T14:03:39;35.23;;;27.53;;
6432;SDS011;3249;42.690;23.260;2023-12-28T14:06:09;39.50;;;27.03;;
6432;SDS011;3249;42.690;23.260;2023-12-28T14:08:39;43.30;;;28.13;;
6432;SDS011;3249;42.690;23.260;2023-12-28T14:11:13;46.67;;;27.03;;
6432;SDS011;3249;42.690;23.260;2023-12-28T14:13:43;42.23;;;28.67;;
6432;SDS011;3249;42.690;23.260;2023-12-28T14:16:13;39.80;;;27.40;;
6432;SDS011;3249;42.690;23.260;2023-12-28T14:18:42;35.83;;;27.50;;
6432;SDS011;3249;42.690;23.260;2023-12-28T14:21:12;39.23;;;27.57;;
6432;SDS011;3249;42.690;23.260;2023-12-28T14:23:42;41.90;;;28.90;;
6432;SDS011;3249;42.690;23.260;2023-12-28T14:26:16;49.90;;;29.50;;
6432;SDS011;3249;42.690;23.260;2023-12-28T14:28:46;47.53;;;30.17;;
6432;SDS011;3249;42.690;23.260;2023-12-28T14:31:16;39.37;;;27.67;;
6432;SDS011;3249;42.690;23.260;2023-12-28T14:33:48;46.73;;;29.10;;
6432;SDS011;3249;42.690;23.260;2023-12-28T14:36:27;50.80;;;28.43;;
6432;SDS011;3249;42.690;23.260;2023-12-28T14:39:00;40.33;;;28.53;;
6432;SDS011;3249;42.690;23.260;2023-12-28T14:41:39;40.27;;;28.00;;
6432;SDS011;3249;42.690;23.260;2023-12-28T14:44:22;41.47;;;27.40;;
6432;SDS011;3249;42.690;23.260;2023-12-28T14:46:55;48.53;;;27.97;;
6432;SDS011;3249;42.690;23.260;2023-12-28T14:49:27;41.87;;;28.73;;
6432;SDS011;3249;42.690;23.260;2023-12-28T14:51:57;44.60;;;29.57;;
6432;SDS011;3249;42.690;23.260;2023-12-28T14:54:29;62.07;;;33.23;;
6432;SDS011;3249;42.690;23.260;2023-12-28T14:57:01;81.97;;;42.13;;
6432;SDS011;3249;42.690;23.260;2023-12-28T14:59:31;66.30;;;35.77;;